地図

経路データ

SID SEASON NUMBER BASIN SUBBASIN NAME ISO_TIME NATURE LAT LON WMO_WIND WMO_PRES WMO_AGENCY TRACK_TYPE DIST2LAND LANDFALL IFLAG USA_AGENCY USA_ATCF_ID USA_LAT USA_LON USA_RECORD USA_STATUS USA_WIND USA_PRES USA_SSHS USA_R34_NE USA_R34_SE USA_R34_SW USA_R34_NW USA_R50_NE USA_R50_SE USA_R50_SW USA_R50_NW USA_R64_NE USA_R64_SE USA_R64_SW USA_R64_NW USA_POCI USA_ROCI USA_RMW USA_EYE TOKYO_LAT TOKYO_LON TOKYO_GRADE TOKYO_WIND TOKYO_PRES TOKYO_R50_DIR TOKYO_R50_LONG TOKYO_R50_SHORT TOKYO_R30_DIR TOKYO_R30_LONG TOKYO_R30_SHORT TOKYO_LAND CMA_LAT CMA_LON CMA_CAT CMA_WIND CMA_PRES HKO_LAT HKO_LON HKO_CAT HKO_WIND HKO_PRES NEWDELHI_LAT NEWDELHI_LON NEWDELHI_GRADE NEWDELHI_WIND NEWDELHI_PRES NEWDELHI_CI NEWDELHI_DP NEWDELHI_POCI REUNION_LAT REUNION_LON REUNION_TYPE REUNION_WIND REUNION_PRES REUNION_TNUM REUNION_CI REUNION_RMW REUNION_R34_NE REUNION_R34_SE REUNION_R34_SW REUNION_R34_NW REUNION_R50_NE REUNION_R50_SE REUNION_R50_SW REUNION_R50_NW REUNION_R64_NE REUNION_R64_SE REUNION_R64_SW REUNION_R64_NW BOM_LAT BOM_LON BOM_TYPE BOM_WIND BOM_PRES BOM_TNUM BOM_CI BOM_RMW BOM_R34_NE BOM_R34_SE BOM_R34_SW BOM_R34_NW BOM_R50_NE BOM_R50_SE BOM_R50_SW BOM_R50_NW BOM_R64_NE BOM_R64_SE BOM_R64_SW BOM_R64_NW BOM_ROCI BOM_POCI BOM_EYE BOM_POS_METHOD BOM_PRES_METHOD NADI_LAT NADI_LON NADI_CAT NADI_WIND NADI_PRES WELLINGTON_LAT WELLINGTON_LON WELLINGTON_WIND WELLINGTON_PRES DS824_LAT DS824_LON DS824_STAGE DS824_WIND DS824_PRES TD9636_LAT TD9636_LON TD9636_STAGE TD9636_WIND TD9636_PRES TD9635_LAT TD9635_LON TD9635_WIND TD9635_PRES TD9635_ROCI NEUMANN_LAT NEUMANN_LON NEUMANN_CLASS NEUMANN_WIND NEUMANN_PRES MLC_LAT MLC_LON MLC_CLASS MLC_WIND MLC_PRES USA_GUST BOM_GUST BOM_GUST_PER REUNION_GUST REUNION_GUST_PER USA_SEAHGT USA_SEARAD_NE USA_SEARAD_SE USA_SEARAD_SW USA_SEARAD_NW STORM_SPEED STORM_DIR
1974019S13054 1974 9 SI MM FREDEGONDE 1974-01-19 06:00:00 TS -13.0000 54.0000 reunion main 431 389 _____O______O_ -1 -13.0000 54.0000 2 9.90000 -13.0000 54.0000 TC 30 9 265
1974019S13054 1974 9 SI MM FREDEGONDE 1974-01-19 09:00:00 TS -13.0401 53.5247 main 378 320 _____P______P_ -1 -13.0401 53.5247 2 -13.0401 53.5247 TC 30 10 258
1974019S13054 1974 9 SI MM FREDEGONDE 1974-01-19 12:00:00 TS -13.2000 53.0000 reunion main 320 250 _____O______O_ -1 -13.2000 53.0000 99 9.90000 -13.2000 53.0000 TC 30 12 246
1974019S13054 1974 9 SI MM FREDEGONDE 1974-01-19 15:00:00 TS -13.5424 52.3878 main 250 172 _____P______P_ -1 -13.5424 52.3878 99 -13.5424 52.3878 TC 30 14 241
1974019S13054 1974 9 SI MM FREDEGONDE 1974-01-19 18:00:00 TS -13.9000 51.7000 reunion main 172 97 _____O______O_ -1 -13.9000 51.7000 99 9.90000 -13.9000 51.7000 TC 30 15 250
1974019S13054 1974 9 SI MM FREDEGONDE 1974-01-19 21:00:00 TS -14.0500 50.9569 main 97 10 _____P______P_ -1 -14.0500 50.9569 99 -14.0500 50.9569 TC 30 15 258
1974019S13054 1974 9 SI MM FREDEGONDE 1974-01-20 00:00:00 TS -14.2000 50.2000 reunion main 10 0 _____O______O_ -1 -14.2000 50.2000 99 9.90000 -14.2000 50.2000 TC 30 15 250
1974019S13054 1974 9 SI MM FREDEGONDE 1974-01-20 03:00:00 TS -14.5646 49.5079 main 0 0 _____P______P_ -1 -14.5646 49.5079 99 -14.5646 49.5079 TC 27 15 243
1974019S13054 1974 9 SI MM FREDEGONDE 1974-01-20 06:00:00 TS -14.9000 48.8000 reunion main 0 0 _____O______O_ -1 -14.9000 48.8000 2 9.90000 -14.9000 48.8000 TC 25 15 254
1974019S13054 1974 9 SI MM FREDEGONDE 1974-01-20 09:00:00 TS -14.9875 47.9995 main 0 0 _____P______P_ -1 -14.9875 47.9995 2 -14.9875 47.9995 TC 25 16 266
1974019S13054 1974 9 SI MM FREDEGONDE 1974-01-20 12:00:00 TS -15.0000 47.2000 reunion main 10 10 _____O______O_ -1 -15.0000 47.2000 99 9.90000 -15.0000 47.2000 TC 25 14 267
1974019S13054 1974 9 SI MM FREDEGONDE 1974-01-20 15:00:00 TS -15.0618 46.5146 main 35 35 _____P______P_ -1 -15.0618 46.5146 99 -15.0618 46.5146 TC 27 14 262
1974019S13054 1974 9 SI MM FREDEGONDE 1974-01-20 18:00:00 TS -15.2000 45.8000 reunion main 70 56 _____O______O_ -1 -15.2000 45.8000 99 9.90000 -15.2000 45.8000 TC 30 16 255
1974019S13054 1974 9 SI MM FREDEGONDE 1974-01-20 21:00:00 TS -15.4775 44.9303 main 59 59 _____P______P_ -1 -15.4775 44.9303 99 -15.4775 44.9303 TC 30 18 251
1974019S13054 1974 9 SI MM FREDEGONDE 1974-01-21 00:00:00 TS -15.8000 44.0000 reunion main 70 70 _____O______O_ -1 -15.8000 44.0000 99 9.90000 -15.8000 44.0000 TC 30 20 253
1974019S13054 1974 9 SI MM FREDEGONDE 1974-01-21 03:00:00 TS -16.0581 42.9951 main 151 151 _____P______P_ -1 -16.0581 42.9951 99 -16.0581 42.9951 TC 30 18 254
1974019S13054 1974 9 SI MM FREDEGONDE 1974-01-21 06:00:00 TS -16.3000 42.2000 reunion main 198 183 _____O______O_ -1 -16.3000 42.2000 2 9.90000 -16.3000 42.2000 TC 30 12 245
1974019S13054 1974 9 SI MM FREDEGONDE 1974-01-21 09:00:00 TS -16.5568 41.9021 main 189 186 _____P______P_ -1 -16.5568 41.9021 2 -16.5568 41.9021 TC 30 6 218
1974019S13054 1974 9 SI MM FREDEGONDE 1974-01-21 12:00:00 TS -16.8000 41.8000 reunion main 193 185 _____O______O_ -1 -16.8000 41.8000 99 9.90000 -16.8000 41.8000 TC 30 6 220
1974019S13054 1974 9 SI MM FREDEGONDE 1974-01-21 15:00:00 TS -16.9776 41.5349 main 183 171 _____P______P_ -1 -16.9776 41.5349 99 -16.9776 41.5349 TC 30 6 230
1974019S13054 1974 9 SI MM FREDEGONDE 1974-01-21 18:00:00 TS -17.2000 41.3000 reunion main 177 173 _____O______O_ -1 -17.2000 41.3000 99 9.90000 -17.2000 41.3000 TC 30 7 209
1974019S13054 1974 9 SI MM FREDEGONDE 1974-01-21 21:00:00 TS -17.5624 41.1923 main 193 193 _____P______P_ -1 -17.5624 41.1923 99 -17.5624 41.1923 TC 30 8 193
1974019S13054 1974 9 SI MM FREDEGONDE 1974-01-22 00:00:00 TS -18.0000 41.1000 reunion main 217 217 _____O______O_ -1 -18.0000 41.1000 99 9.90000 -18.0000 41.1000 TC 30 10 194
1974019S13054 1974 9 SI MM FREDEGONDE 1974-01-22 03:00:00 TS -18.4873 40.9525 main 257 252 _____P______P_ -1 -18.4873 40.9525 99 -18.4873 40.9525 TC 30 10 203
1974019S13054 1974 9 SI MM FREDEGONDE 1974-01-22 06:00:00 TS -18.9000 40.7000 reunion main 271 262 _____O______O_ -1 -18.9000 40.7000 2 9.90000 -18.9000 40.7000 TC 30 9 226
1974019S13054 1974 9 SI MM FREDEGONDE 1974-01-22 09:00:00 TS -19.0950 40.2948 main 267 257 _____P______P_ -1 -19.0950 40.2948 2 -19.0950 40.2948 TC 30 9 251
1974019S13054 1974 9 SI MM FREDEGONDE 1974-01-22 12:00:00 TS -19.2000 39.8000 reunion main 257 251 _____O______O_ -1 -19.2000 39.8000 99 9.90000 -19.2000 39.8000 TC 30 10 255
1974019S13054 1974 9 SI MM FREDEGONDE 1974-01-22 15:00:00 TS -19.3500 39.2999 main 254 245 _____P______P_ -1 -19.3500 39.2999 99 -19.3500 39.2999 TC 30 10 252
1974019S13054 1974 9 SI MM FREDEGONDE 1974-01-22 18:00:00 TS -19.5000 38.8000 reunion main 245 222 _____O______O_ -1 -19.5000 38.8000 99 9.90000 -19.5000 38.8000 TC 30 9 251
1974019S13054 1974 9 SI MM FREDEGONDE 1974-01-22 21:00:00 TS -19.6572 38.3574 main 230 195 _____P______P_ -1 -19.6572 38.3574 99 -19.6572 38.3574 TC 30 9 251
1974019S13054 1974 9 SI MM FREDEGONDE 1974-01-23 00:00:00 TS -19.8000 37.9000 reunion main 195 160 _____O______O_ -1 -19.8000 37.9000 99 9.90000 -19.8000 37.9000 TC 30 10 255
1974019S13054 1974 9 SI MM FREDEGONDE 1974-01-23 03:00:00 TS -19.9105 37.3726 main 160 133 _____P______P_ -1 -19.9105 37.3726 99 -19.9105 37.3726 TC 30 11 259
1974019S13054 1974 9 SI MM FREDEGONDE 1974-01-23 06:00:00 TS -20.0000 36.8000 reunion main 133 _____O______O_ -1 -20.0000 36.8000 99 9.90000 -20.0000 36.8000 TC 30 11 261

IBTrACS Databaseについて

本データベースは、米国NOAAが公開する1842年以降の世界の熱帯低気圧のベストトラックデータアーカイブInternational Best Track Archive for Climate Stewardship (IBTrACS)を、ウェブで閲覧しやすい形式に変換したものです。

最終更新日:2021-10-27